Time;durP1;ratioP1;P1;durP2;ratioP2;P2;SDS_P1;SDS_P2;PMS_P1;PMS_P2;Temp;Humidity;BMP_temperature;BMP_pressure;BME280_temperature;BME280_humidity;BME280_pressure;Samples;Min_cycle;Max_cycle;Signal;HPM_P1;HPM_P2
2022/05/28 00:00:02;;;;;;;;;;;11.40;99.90;;;;;;5073791;28;19929;-75
2022/05/28 00:02:27;;;;;;;;;;;11.40;99.90;;;;;;5073182;28;20408;-75
2022/05/28 00:04:53;;;;;;;;;;;11.60;99.90;;;;;;5072992;28;19908;-74
2022/05/28 00:07:18;;;;;;;;;;;11.50;99.90;;;;;;5074107;28;19909;-74
2022/05/28 00:09:44;;;;;;;;;;;11.60;99.90;;;;;;5073595;28;19998;-74
2022/05/28 00:12:09;;;;;;;;;;;11.40;99.90;;;;;;5072835;28;20185;-75
2022/05/28 00:14:35;;;;;;;;;;;11.10;99.90;;;;;;5086573;28;19958;-75
2022/05/28 00:17:00;;;;;;;;;;;11.00;99.90;;;;;;5092850;28;19908;-75
2022/05/28 00:19:26;;;;;;;;;;;11.00;99.90;;;;;;5093203;28;20297;-75
2022/05/28 00:21:51;;;;;;;;;;;11.00;99.90;;;;;;5092375;28;19916;-74
2022/05/28 00:24:17;;;;;;;;;;;10.80;99.90;;;;;;5084739;28;20329;-74
2022/05/28 00:26:44;;;;;;;;;;;10.70;99.90;;;;;;5078745;28;19909;-75
2022/05/28 00:29:09;;;;;;;;;;;10.70;99.90;;;;;;5073628;28;19908;-74
2022/05/28 00:31:35;;;;;;;;;;;10.70;99.90;;;;;;5072643;28;19908;-75
2022/05/28 00:34:00;;;;;;;;;;;10.70;99.90;;;;;;5076224;28;20344;-75
2022/05/28 00:36:26;;;;;;;;;;;10.50;99.90;;;;;;5074622;28;19909;-75
2022/05/28 00:38:51;;;;;;;;;;;10.40;99.90;;;;;;5073124;28;19916;-75
2022/05/28 00:41:17;;;;;;;;;;;10.40;99.90;;;;;;5072923;28;19945;-75
2022/05/28 00:43:44;;;;;;;;;;;10.40;99.90;;;;;;5072380;28;19990;-74
2022/05/28 00:46:12;;;;;;;;;;;10.20;99.90;;;;;;5073030;28;19934;-74
2022/05/28 00:48:40;;;;;;;;;;;10.20;99.90;;;;;;5073062;28;20195;-74
2022/05/28 00:51:10;;;;;;;;;;;10.10;99.90;;;;;;5073063;28;19909;-74
2022/05/28 00:53:35;;;;;;;;;;;10.10;99.90;;;;;;5078581;28;19920;-75
2022/05/28 00:56:02;;;;;;;;;;;10.00;99.90;;;;;;5073250;28;19908;-74
2022/05/28 00:58:28;;;;;;;;;;;10.00;99.90;;;;;;5072951;28;19935;-74
2022/05/28 01:00:53;;;;;;;;;;;10.00;99.90;;;;;;5072335;28;20266;-74
2022/05/28 01:03:19;;;;;;;;;;;10.00;99.90;;;;;;5071667;28;19923;-74
2022/05/28 01:05:48;;;;;;;;;;;10.00;99.90;;;;;;5072636;28;19909;-74
2022/05/28 01:08:25;;;;;;;;;;;10.00;99.90;;;;;;5072902;28;19909;-74
2022/05/28 01:11:00;;;;;;;;;;;9.90;99.90;;;;;;5072767;28;20323;-74
2022/05/28 01:13:28;;;;;;;;;;;10.00;99.90;;;;;;5071433;28;19931;-74
2022/05/28 01:16:12;;;;;;;;;;;10.00;99.90;;;;;;5091683;28;19912;-74
2022/05/28 01:18:41;;;;;;;;;;;10.00;99.90;;;;;;5091603;28;19961;-74
2022/05/28 01:21:08;;;;;;;;;;;10.00;99.90;;;;;;5091590;28;20030;-74
2022/05/28 01:23:52;;;;;;;;;;;9.90;99.90;;;;;;5087235;28;19912;-74
2022/05/28 01:26:36;;;;;;;;;;;10.00;99.90;;;;;;5074726;28;19908;-74
2022/05/28 01:29:04;;;;;;;;;;;9.90;99.90;;;;;;5085310;28;20365;-74
2022/05/28 01:31:31;;;;;;;;;;;10.00;99.90;;;;;;5071592;28;19959;-74
2022/05/28 01:33:57;;;;;;;;;;;10.00;99.90;;;;;;5071347;28;20358;-74
2022/05/28 01:36:23;;;;;;;;;;;10.10;99.90;;;;;;5072156;28;20344;-74
2022/05/28 01:38:50;;;;;;;;;;;10.00;99.90;;;;;;5091711;28;19908;-74
2022/05/28 01:41:17;;;;;;;;;;;10.00;99.90;;;;;;5091077;28;20349;-74
2022/05/28 01:43:44;;;;;;;;;;;10.00;99.90;;;;;;5090606;28;20010;-74
2022/05/28 01:46:11;;;;;;;;;;;10.00;99.90;;;;;;5091088;28;19915;-74
2022/05/28 01:48:37;;;;;;;;;;;10.00;99.90;;;;;;5091501;28;19915;-74
2022/05/28 01:51:03;;;;;;;;;;;10.10;99.90;;;;;;5091326;28;20369;-74
2022/05/28 01:56:14;;;;;;;;;;;10.00;99.90;;;;;;5083639;28;19916;-74
2022/05/28 01:58:40;;;;;;;;;;;9.90;99.90;;;;;;5071849;28;19956;-74
2022/05/28 02:01:06;;;;;;;;;;;9.90;99.90;;;;;;5071379;28;20007;-74
2022/05/28 02:03:33;;;;;;;;;;;9.90;99.90;;;;;;5070596;28;19912;-74
2022/05/28 02:05:59;;;;;;;;;;;9.70;99.90;;;;;;5070230;28;20276;-74
2022/05/28 02:08:26;;;;;;;;;;;9.70;99.90;;;;;;5071491;28;20008;-75
2022/05/28 02:11:24;;;;;;;;;;;9.70;99.90;;;;;;5070605;28;20328;-74
2022/05/28 02:13:53;;;;;;;;;;;9.60;99.90;;;;;;5025787;28;19908;-75
2022/05/28 02:16:25;;;;;;;;;;;9.50;99.90;;;;;;5071257;28;19909;-74
2022/05/28 02:18:55;;;;;;;;;;;9.50;99.90;;;;;;5071410;28;19908;-74
2022/05/28 02:21:26;;;;;;;;;;;9.50;99.90;;;;;;5070949;28;20437;-75
2022/05/28 02:24:01;;;;;;;;;;;9.50;99.90;;;;;;5084375;28;20316;-74
2022/05/28 02:26:29;;;;;;;;;;;9.50;99.90;;;;;;5070891;28;19909;-74
2022/05/28 02:28:54;;;;;;;;;;;9.50;99.90;;;;;;5071329;28;19963;-75
2022/05/28 02:31:24;;;;;;;;;;;9.40;99.90;;;;;;5070440;28;19951;-74
2022/05/28 02:33:49;;;;;;;;;;;9.30;99.90;;;;;;5070561;28;19908;-74
2022/05/28 02:36:16;;;;;;;;;;;9.20;99.90;;;;;;5071390;28;19962;-74
2022/05/28 02:38:41;;;;;;;;;;;9.20;99.90;;;;;;5071361;28;19908;-74
2022/05/28 02:41:07;;;;;;;;;;;9.20;99.90;;;;;;5071277;28;20326;-74
2022/05/28 02:43:33;;;;;;;;;;;9.10;99.90;;;;;;5070217;28;19939;-74
2022/05/28 02:46:00;;;;;;;;;;;9.10;99.90;;;;;;5069422;28;19931;-75
2022/05/28 02:48:25;;;;;;;;;;;9.10;99.90;;;;;;5071216;28;20370;-74
2022/05/28 02:50:51;;;;;;;;;;;9.10;99.90;;;;;;5071143;28;19909;-74
2022/05/28 02:53:16;;;;;;;;;;;9.10;99.90;;;;;;5073939;28;19908;-75
2022/05/28 02:55:42;;;;;;;;;;;9.00;99.90;;;;;;5084664;28;19912;-74
2022/05/28 02:58:07;;;;;;;;;;;9.10;99.90;;;;;;5071283;28;19908;-74
2022/05/28 03:00:33;;;;;;;;;;;9.10;99.90;;;;;;5070937;28;19916;-75
2022/05/28 03:02:59;;;;;;;;;;;9.10;99.90;;;;;;5070311;28;19919;-75
2022/05/28 03:05:25;;;;;;;;;;;9.10;99.90;;;;;;5070670;28;19954;-74
2022/05/28 03:07:51;;;;;;;;;;;9.00;99.90;;;;;;5071102;28;19916;-74
2022/05/28 03:10:16;;;;;;;;;;;8.90;99.90;;;;;;5069772;28;19909;-75
2022/05/28 03:12:42;;;;;;;;;;;8.80;99.90;;;;;;5070776;28;19930;-75
2022/05/28 03:15:07;;;;;;;;;;;8.70;99.90;;;;;;5070233;28;19909;-75
2022/05/28 03:17:33;;;;;;;;;;;8.70;99.90;;;;;;5070861;28;19935;-75
2022/05/28 03:20:01;;;;;;;;;;;8.60;99.90;;;;;;5076795;28;19912;-74
2022/05/28 03:22:29;;;;;;;;;;;8.60;99.90;;;;;;5074056;28;19917;-74
2022/05/28 03:24:55;;;;;;;;;;;8.70;99.90;;;;;;5086618;28;19909;-74
2022/05/28 03:27:20;;;;;;;;;;;8.70;99.90;;;;;;5076210;28;19915;-74
2022/05/28 03:29:46;;;;;;;;;;;8.50;99.90;;;;;;5070558;28;20178;-75
2022/05/28 03:32:11;;;;;;;;;;;8.40;99.90;;;;;;5069894;28;19909;-74
2022/05/28 03:34:37;;;;;;;;;;;8.30;99.90;;;;;;5069952;28;19908;-74
2022/05/28 03:37:03;;;;;;;;;;;8.20;99.90;;;;;;5073332;28;19916;-74
2022/05/28 03:39:28;;;;;;;;;;;8.10;99.90;;;;;;5090073;28;19908;-75
2022/05/28 03:41:54;;;;;;;;;;;8.00;99.90;;;;;;5089314;28;20324;-75
2022/05/28 03:44:19;;;;;;;;;;;7.80;99.90;;;;;;5089275;28;19908;-75
2022/05/28 03:46:45;;;;;;;;;;;7.80;99.90;;;;;;5091721;28;20003;-75
2022/05/28 03:49:25;;;;;;;;;;;7.80;99.90;;;;;;5093539;28;20289;-74
2022/05/28 03:51:51;;;;;;;;;;;7.80;99.90;;;;;;5092946;28;19915;-74
2022/05/28 03:54:16;;;;;;;;;;;7.80;99.90;;;;;;5081233;28;19909;-75
2022/05/28 03:56:43;;;;;;;;;;;8.00;99.90;;;;;;5074342;28;20385;-74
2022/05/28 03:59:08;;;;;;;;;;;8.20;99.90;;;;;;5072869;28;19912;-75
2022/05/28 04:01:35;;;;;;;;;;;8.20;99.90;;;;;;5073459;28;19941;-75
2022/05/28 04:04:01;;;;;;;;;;;8.40;99.90;;;;;;5073102;28;20015;-75
2022/05/28 04:06:26;;;;;;;;;;;8.30;99.90;;;;;;5082542;28;19998;-74
2022/05/28 04:08:52;;;;;;;;;;;8.20;99.90;;;;;;5092737;28;19935;-74
2022/05/28 04:11:17;;;;;;;;;;;8.20;99.90;;;;;;5084301;28;20273;-75
2022/05/28 04:13:44;;;;;;;;;;;8.00;99.90;;;;;;5092497;28;19908;-75
2022/05/28 04:16:09;;;;;;;;;;;8.10;99.90;;;;;;5092957;28;19915;-74
2022/05/28 04:18:35;;;;;;;;;;;8.00;99.90;;;;;;5092979;28;19908;-74
2022/05/28 04:21:01;;;;;;;;;;;8.00;99.90;;;;;;5092702;28;19912;-75
2022/05/28 04:23:26;;;;;;;;;;;7.90;99.90;;;;;;5084157;28;19913;-74
2022/05/28 04:25:52;;;;;;;;;;;7.90;99.90;;;;;;5080649;28;20098;-74
2022/05/28 04:28:17;;;;;;;;;;;8.00;99.90;;;;;;5073297;28;19913;-75
2022/05/28 04:30:43;;;;;;;;;;;8.10;99.90;;;;;;5073141;28;20373;-74
2022/05/28 04:33:08;;;;;;;;;;;8.30;99.90;;;;;;5071974;28;19915;-75
2022/05/28 04:35:34;;;;;;;;;;;8.10;99.90;;;;;;5073163;28;19909;-74
2022/05/28 04:37:59;;;;;;;;;;;8.00;99.90;;;;;;5073192;28;19908;-74
2022/05/28 04:40:25;;;;;;;;;;;8.00;99.90;;;;;;5073069;28;20013;-74
2022/05/28 04:42:50;;;;;;;;;;;7.90;99.90;;;;;;5072487;28;19912;-75
2022/05/28 04:45:16;;;;;;;;;;;8.10;99.90;;;;;;5072540;28;20369;-75
2022/05/28 04:47:41;;;;;;;;;;;8.10;99.90;;;;;;5072871;28;19909;-75
2022/05/28 04:50:07;;;;;;;;;;;8.10;99.90;;;;;;5072851;28;20467;-75
2022/05/28 04:52:33;;;;;;;;;;;8.10;99.90;;;;;;5076534;28;19912;-75
2022/05/28 04:54:58;;;;;;;;;;;8.00;99.90;;;;;;5081901;28;19916;-74
2022/05/28 04:57:24;;;;;;;;;;;7.90;99.90;;;;;;5076751;28;19922;-74
2022/05/28 04:59:49;;;;;;;;;;;7.80;99.90;;;;;;5072927;28;19909;-74
2022/05/28 05:02:15;;;;;;;;;;;8.00;99.90;;;;;;5072357;28;19913;-74
2022/05/28 05:04:41;;;;;;;;;;;8.10;99.90;;;;;;5072766;28;19909;-74
2022/05/28 05:07:06;;;;;;;;;;;8.20;99.90;;;;;;5072907;28;19908;-74
2022/05/28 05:09:32;;;;;;;;;;;8.30;99.90;;;;;;5072800;28;19917;-75
2022/05/28 05:11:58;;;;;;;;;;;8.60;99.90;;;;;;5072331;28;19909;-75
2022/05/28 05:14:23;;;;;;;;;;;8.70;99.90;;;;;;5071919;28;19908;-74
2022/05/28 05:16:49;;;;;;;;;;;8.70;99.90;;;;;;5072375;28;19912;-74
2022/05/28 05:19:14;;;;;;;;;;;8.70;99.90;;;;;;5072615;28;20289;-75
2022/05/28 05:21:40;;;;;;;;;;;8.80;99.90;;;;;;5072247;28;19963;-75
2022/05/28 05:24:06;;;;;;;;;;;8.90;99.90;;;;;;5080750;28;20379;-76
2022/05/28 05:26:31;;;;;;;;;;;8.90;99.90;;;;;;5074442;28;19913;-75
2022/05/28 05:28:57;;;;;;;;;;;9.00;99.90;;;;;;5072500;28;20385;-76
2022/05/28 05:31:22;;;;;;;;;;;9.10;99.90;;;;;;5071731;28;19912;-75
2022/05/28 05:33:48;;;;;;;;;;;9.20;99.90;;;;;;5071453;28;19919;-75
2022/05/28 05:36:14;;;;;;;;;;;9.30;99.90;;;;;;5072246;28;19912;-75
2022/05/28 05:38:39;;;;;;;;;;;9.40;99.90;;;;;;5070823;28;19909;-75
2022/05/28 05:41:05;;;;;;;;;;;9.70;99.90;;;;;;5091713;28;20437;-74
2022/05/28 05:43:31;;;;;;;;;;;10.50;99.90;;;;;;5090358;28;19967;-75
2022/05/28 05:45:58;;;;;;;;;;;11.00;99.90;;;;;;5091706;28;19908;-75
2022/05/28 05:48:23;;;;;;;;;;;10.10;99.90;;;;;;5091209;28;19908;-75
2022/05/28 05:50:49;;;;;;;;;;;10.00;99.90;;;;;;5084665;28;19914;-76
2022/05/28 05:53:15;;;;;;;;;;;10.30;99.90;;;;;;5081646;28;19956;-75
2022/05/28 05:55:40;;;;;;;;;;;9.80;99.90;;;;;;5087331;28;19915;-75
2022/05/28 05:58:06;;;;;;;;;;;10.30;99.90;;;;;;5072779;28;19954;-74
2022/05/28 06:00:31;;;;;;;;;;;10.90;99.90;;;;;;5070977;28;19909;-75
2022/05/28 06:02:57;;;;;;;;;;;10.80;99.90;;;;;;5071510;28;20034;-75
2022/05/28 06:05:22;;;;;;;;;;;10.50;99.90;;;;;;5071465;28;19916;-75
2022/05/28 06:07:48;;;;;;;;;;;10.00;99.90;;;;;;5072103;28;20358;-75
2022/05/28 06:10:13;;;;;;;;;;;10.10;99.90;;;;;;5072004;28;20345;-74
2022/05/28 06:12:39;;;;;;;;;;;10.10;99.90;;;;;;5072153;28;20003;-75
2022/05/28 06:15:05;;;;;;;;;;;10.00;99.90;;;;;;5071807;28;19909;-75
2022/05/28 06:17:33;;;;;;;;;;;10.30;99.90;;;;;;5071745;28;19915;-74
2022/05/28 06:19:59;;;;;;;;;;;11.30;99.90;;;;;;5071104;28;20362;-76
2022/05/28 06:22:24;;;;;;;;;;;12.00;99.90;;;;;;5074566;28;19919;-75
2022/05/28 06:24:50;;;;;;;;;;;12.70;99.90;;;;;;5079509;28;20014;-75
2022/05/28 06:27:15;;;;;;;;;;;12.10;99.90;;;;;;5076195;28;19908;-76
2022/05/28 06:29:40;;;;;;;;;;;11.70;99.90;;;;;;5071779;28;19909;-75
2022/05/28 06:32:06;;;;;;;;;;;11.50;99.90;;;;;;5070898;28;19944;-75
2022/05/28 06:34:32;;;;;;;;;;;12.10;99.90;;;;;;5070825;28;20281;-75
2022/05/28 06:36:57;;;;;;;;;;;11.20;99.90;;;;;;5079698;28;20361;-74
2022/05/28 06:39:22;;;;;;;;;;;11.00;99.90;;;;;;5090640;28;19919;-74
2022/05/28 06:41:48;;;;;;;;;;;11.00;99.90;;;;;;5078929;28;19912;-75
2022/05/28 06:44:13;;;;;;;;;;;11.90;99.90;;;;;;5090947;28;19912;-74
2022/05/28 06:46:39;;;;;;;;;;;12.60;99.90;;;;;;5091636;28;20277;-75
2022/05/28 06:49:04;;;;;;;;;;;12.90;99.90;;;;;;5091401;28;19961;-74
2022/05/28 06:51:31;;;;;;;;;;;13.80;99.50;;;;;;5090978;28;20305;-75
2022/05/28 06:53:57;;;;;;;;;;;14.60;99.30;;;;;;5082533;28;19918;-75
2022/05/28 06:56:22;;;;;;;;;;;14.80;96.70;;;;;;5073940;28;19968;-75
2022/05/28 06:58:48;;;;;;;;;;;14.90;95.10;;;;;;5071238;28;20328;-75
2022/05/28 07:01:14;;;;;;;;;;;15.10;95.40;;;;;;5070618;28;19908;-75
2022/05/28 07:03:42;;;;;;;;;;;14.20;92.70;;;;;;5070024;28;19966;-75
2022/05/28 07:06:07;;;;;;;;;;;14.70;93.00;;;;;;5070940;28;20315;-75
2022/05/28 07:08:33;;;;;;;;;;;14.20;93.70;;;;;;5070941;28;19919;-75
2022/05/28 07:11:00;;;;;;;;;;;15.00;93.00;;;;;;5070972;28;19908;-75
2022/05/28 07:13:26;;;;;;;;;;;14.10;92.40;;;;;;5070314;28;19908;-75
2022/05/28 07:15:52;;;;;;;;;;;14.40;88.00;;;;;;5071015;28;20377;-75
2022/05/28 07:18:19;;;;;;;;;;;14.30;87.40;;;;;;5070630;28;19908;-75
2022/05/28 07:20:44;;;;;;;;;;;15.30;88.40;;;;;;5069945;28;19923;-76
2022/05/28 07:23:15;;;;;;;;;;;15.10;88.80;;;;;;5082042;28;20460;-75
2022/05/28 07:25:41;;;;;;;;;;;15.50;90.10;;;;;;5087616;28;19908;-76
2022/05/28 07:28:24;;;;;;;;;;;16.10;89.00;;;;;;5092451;28;19991;-76
2022/05/28 07:30:57;;;;;;;;;;;15.80;87.60;;;;;;5093886;28;19908;-75
2022/05/28 07:33:25;;;;;;;;;;;15.80;90.60;;;;;;5077968;28;20277;-76
2022/05/28 07:35:51;;;;;;;;;;;14.90;85.40;;;;;;5081918;28;20373;-74
2022/05/28 07:38:16;;;;;;;;;;;15.80;90.20;;;;;;5093029;28;19916;-74
2022/05/28 07:40:42;;;;;;;;;;;16.10;90.30;;;;;;5074511;28;19908;-74
2022/05/28 07:43:08;;;;;;;;;;;16.50;89.50;;;;;;5092044;28;19912;-74
2022/05/28 07:45:37;;;;;;;;;;;17.50;91.10;;;;;;5087062;28;19912;-75
2022/05/28 07:48:03;;;;;;;;;;;17.50;80.30;;;;;;5091468;28;19981;-74
2022/05/28 07:50:29;;;;;;;;;;;16.60;86.10;;;;;;5080353;28;19944;-74
2022/05/28 07:52:55;;;;;;;;;;;16.60;84.70;;;;;;5084559;28;19908;-74
2022/05/28 07:55:21;;;;;;;;;;;15.40;85.00;;;;;;5086597;28;19916;-75
2022/05/28 07:57:46;;;;;;;;;;;15.90;90.10;;;;;;5086791;28;19961;-75
2022/05/28 08:00:12;;;;;;;;;;;16.20;87.40;;;;;;5080589;28;19940;-75
2022/05/28 08:02:37;;;;;;;;;;;18.10;89.80;;;;;;5083980;28;19977;-76
2022/05/28 08:05:03;;;;;;;;;;;17.90;85.30;;;;;;5092607;28;19908;-76
2022/05/28 08:07:29;;;;;;;;;;;16.90;88.40;;;;;;5093107;28;20003;-76
2022/05/28 08:09:55;;;;;;;;;;;16.60;79.80;;;;;;5081661;28;19909;-76
2022/05/28 08:12:21;;;;;;;;;;;17.10;81.50;;;;;;5077537;28;19915;-76
2022/05/28 08:14:47;;;;;;;;;;;16.10;79.20;;;;;;5092464;28;19908;-76
2022/05/28 08:17:12;;;;;;;;;;;17.30;79.80;;;;;;5090713;28;20397;-75
2022/05/28 08:19:38;;;;;;;;;;;18.50;78.10;;;;;;5092692;28;19915;-75
2022/05/28 08:25:04;;;;;;;;;;;16.30;78.20;;;;;;4998111;28;20334;-75
2022/05/28 08:27:30;;;;;;;;;;;16.70;83.30;;;;;;5050908;28;19909;-76
2022/05/28 08:29:55;;;;;;;;;;;17.40;77.80;;;;;;5079687;28;19912;-75
2022/05/28 08:32:21;;;;;;;;;;;17.30;76.00;;;;;;5072188;28;19908;-75
2022/05/28 08:34:46;;;;;;;;;;;16.20;79.20;;;;;;5086531;28;19961;-75
2022/05/28 08:37:12;;;;;;;;;;;18.00;71.60;;;;;;5079481;28;19908;-75
2022/05/28 08:39:38;;;;;;;;;;;17.50;75.00;;;;;;5092496;28;19931;-75
2022/05/28 08:42:03;;;;;;;;;;;18.50;77.20;;;;;;5091841;28;19912;-76
2022/05/28 08:44:35;;;;;;;;;;;18.60;74.50;;;;;;5091614;28;19912;-76
2022/05/28 08:47:11;;;;;;;;;;;18.80;69.70;;;;;;5092154;28;19962;-75
2022/05/28 08:49:37;;;;;;;;;;;19.00;67.30;;;;;;5092291;28;19912;-76
2022/05/28 08:52:05;;;;;;;;;;;19.20;66.80;;;;;;5090640;28;20423;-75
2022/05/28 08:54:31;;;;;;;;;;;18.80;78.70;;;;;;5077889;28;19908;-75
2022/05/28 08:56:59;;;;;;;;;;;18.30;70.70;;;;;;5083083;28;19919;-76
2022/05/28 08:59:34;;;;;;;;;;;19.70;71.80;;;;;;5072774;28;19935;-75
2022/05/28 09:02:00;;;;;;;;;;;18.90;66.80;;;;;;5072056;28;19919;-75
2022/05/28 09:04:40;;;;;;;;;;;18.00;66.70;;;;;;5070693;28;19913;-75
2022/05/28 09:07:09;;;;;;;;;;;19.90;71.90;;;;;;5072383;28;19912;-75
2022/05/28 09:09:42;;;;;;;;;;;19.20;65.80;;;;;;5072442;28;19947;-75
2022/05/28 09:12:10;;;;;;;;;;;18.30;66.10;;;;;;5072262;28;19940;-76
2022/05/28 09:14:37;;;;;;;;;;;18.70;66.00;;;;;;5071811;28;19912;-75
2022/05/28 09:17:05;;;;;;;;;;;20.30;68.00;;;;;;5072190;28;19908;-76
2022/05/28 09:19:33;;;;;;;;;;;19.20;67.50;;;;;;5072276;28;19951;-75
2022/05/28 09:21:59;;;;;;;;;;;17.70;75.90;;;;;;5070329;28;19916;-76
2022/05/28 09:24:27;;;;;;;;;;;18.80;74.30;;;;;;5081540;28;19919;-76
2022/05/28 09:27:10;;;;;;;;;;;17.80;73.60;;;;;;5078547;28;19908;-76
2022/05/28 09:29:45;;;;;;;;;;;16.30;69.10;;;;;;5085885;28;20041;-76
2022/05/28 09:32:20;;;;;;;;;;;14.90;72.40;;;;;;5089270;28;19962;-75
2022/05/28 09:35:04;;;;;;;;;;;15.50;77.60;;;;;;5071366;28;19923;-76
2022/05/28 09:38:02;;;;;;;;;;;17.60;66.50;;;;;;5083858;28;19909;-76
2022/05/28 09:40:42;;;;;;;;;;;19.00;76.20;;;;;;5057865;28;19915;-77
2022/05/28 09:43:11;;;;;;;;;;;18.60;72.10;;;;;;5085700;28;20333;-77
2022/05/28 09:45:52;;;;;;;;;;;18.80;68.70;;;;;;5076203;28;19908;-77
2022/05/28 09:48:19;;;;;;;;;;;19.30;68.20;;;;;;5084883;28;19909;-77
2022/05/28 09:50:44;;;;;;;;;;;19.80;71.30;;;;;;5071729;28;19935;-77
2022/05/28 09:56:04;;;;;;;;;;;18.90;68.40;;;;;;5082257;28;20309;-77
2022/05/28 09:58:30;;;;;;;;;;;18.80;66.90;;;;;;5071727;28;19908;-77
2022/05/28 10:01:10;;;;;;;;;;;18.30;69.80;;;;;;5074559;28;19991;-76
2022/05/28 10:06:23;;;;;;;;;;;18.50;70.70;;;;;;5071802;28;19916;-76
2022/05/28 10:08:48;;;;;;;;;;;19.00;66.80;;;;;;5079120;28;20423;-76
2022/05/28 10:11:15;;;;;;;;;;;18.20;63.70;;;;;;5091931;28;19959;-77
2022/05/28 10:13:45;;;;;;;;;;;17.70;69.00;;;;;;5070958;28;19913;-75
2022/05/28 10:16:11;;;;;;;;;;;16.50;68.00;;;;;;5078692;28;19908;-76
2022/05/28 10:18:39;;;;;;;;;;;16.00;71.60;;;;;;5074550;28;19917;-77
2022/05/28 10:21:07;;;;;;;;;;;16.30;71.80;;;;;;5089663;28;19959;-77
2022/05/28 10:23:35;;;;;;;;;;;16.00;74.90;;;;;;5076810;28;19916;-76
2022/05/28 10:26:00;;;;;;;;;;;16.30;74.60;;;;;;5110519;28;19907;-76
2022/05/28 10:28:30;;;;;;;;;;;17.80;76.00;;;;;;5084582;28;20369;-76
2022/05/28 10:30:56;;;;;;;;;;;18.70;73.70;;;;;;5078169;28;20003;-76
2022/05/28 10:33:28;;;;;;;;;;;18.40;71.90;;;;;;5083053;28;19947;-76
2022/05/28 10:36:05;;;;;;;;;;;18.00;71.70;;;;;;5078072;28;19995;-76
2022/05/28 10:38:30;;;;;;;;;;;16.50;73.60;;;;;;5085157;28;19908;-76
2022/05/28 10:40:57;;;;;;;;;;;16.30;72.40;;;;;;5078625;28;19916;-76
2022/05/28 10:43:26;;;;;;;;;;;16.40;73.90;;;;;;5075038;28;19913;-76
2022/05/28 10:46:00;;;;;;;;;;;17.20;73.10;;;;;;5089070;28;19912;-76
2022/05/28 10:48:33;;;;;;;;;;;18.30;75.30;;;;;;5077706;28;19944;-76
2022/05/28 10:51:02;;;;;;;;;;;18.20;75.70;;;;;;5071127;28;20276;-76
2022/05/28 10:53:54;;;;;;;;;;;18.20;78.50;;;;;;5072525;28;19912;-76
2022/05/28 10:57:01;;;;;;;;;;;17.60;75.50;;;;;;5056190;28;19965;-77
2022/05/28 10:59:41;;;;;;;;;;;16.80;74.50;;;;;;5032813;28;19972;-77
2022/05/28 11:02:20;;;;;;;;;;;15.30;74.30;;;;;;5032046;28;19963;-76
2022/05/28 11:04:48;;;;;;;;;;;15.60;75.10;;;;;;5060679;28;19912;-77
2022/05/28 11:07:16;;;;;;;;;;;15.70;72.80;;;;;;5084599;28;20353;-77
2022/05/28 11:09:52;;;;;;;;;;;17.30;74.20;;;;;;5095511;28;19919;-75
2022/05/28 11:12:23;;;;;;;;;;;18.30;71.30;;;;;;5082931;28;19957;-76
2022/05/28 11:14:52;;;;;;;;;;;18.90;67.50;;;;;;5089704;28;19908;-74
2022/05/28 11:17:17;;;;;;;;;;;18.50;72.10;;;;;;5079202;28;19908;-78
2022/05/28 11:19:53;;;;;;;;;;;17.40;70.00;;;;;;5083423;28;19920;-76
2022/05/28 11:22:33;;;;;;;;;;;16.70;69.90;;;;;;5086070;28;19950;-77
2022/05/28 11:25:05;;;;;;;;;;;15.70;72.70;;;;;;5087809;28;19908;-75
2022/05/28 11:27:45;;;;;;;;;;;15.20;77.20;;;;;;5099710;28;20262;-76
2022/05/28 11:30:24;;;;;;;;;;;14.90;80.20;;;;;;5096274;28;20093;-77
2022/05/28 11:33:10;;;;;;;;;;;14.80;78.80;;;;;;5075669;28;20424;-75
2022/05/28 11:35:42;;;;;;;;;;;14.90;77.70;;;;;;5073831;28;20105;-75
2022/05/28 11:38:07;;;;;;;;;;;15.70;78.80;;;;;;5073651;28;19908;-75
2022/05/28 11:40:47;;;;;;;;;;;15.60;76.00;;;;;;5073610;28;19934;-75
2022/05/28 11:43:21;;;;;;;;;;;16.50;80.00;;;;;;5073525;28;19939;-75
2022/05/28 11:45:53;;;;;;;;;;;17.00;74.90;;;;;;5074558;28;19916;-75
2022/05/28 11:51:27;;;;;;;;;;;16.90;73.00;;;;;;5074500;28;20283;-75
2022/05/28 11:51:30;;;;;;;;;;;18.10;73.60;;;;;;5073995;28;19912;-75
2022/05/28 11:54:07;;;;;;;;;;;17.80;69.80;;;;;;5081908;28;20011;-75
2022/05/28 11:56:33;;;;;;;;;;;17.50;68.40;;;;;;5085196;28;19919;-75
2022/05/28 11:59:06;;;;;;;;;;;18.10;77.90;;;;;;5074457;28;19912;-75
2022/05/28 12:01:37;;;;;;;;;;;17.80;70.10;;;;;;5074061;28;19916;-75
2022/05/28 12:04:05;;;;;;;;;;;17.80;75.30;;;;;;5073391;28;19920;-74
2022/05/28 12:06:34;;;;;;;;;;;18.00;72.90;;;;;;5072590;28;20358;-76
2022/05/28 12:09:06;;;;;;;;;;;18.40;67.00;;;;;;5074478;28;19923;-75
2022/05/28 12:11:31;;;;;;;;;;;18.70;63.80;;;;;;5086753;28;20304;-76
2022/05/28 12:13:59;;;;;;;;;;;18.40;63.60;;;;;;5093214;28;19908;-76
2022/05/28 12:16:25;;;;;;;;;;;18.90;64.70;;;;;;5093478;28;20006;-76
2022/05/28 12:18:55;;;;;;;;;;;18.70;62.20;;;;;;5092435;28;19947;-75
2022/05/28 12:21:24;;;;;;;;;;;18.60;63.40;;;;;;5092809;28;19919;-76
2022/05/28 12:23:50;;;;;;;;;;;19.50;63.40;;;;;;5084026;28;20273;-74
2022/05/28 12:26:45;;;;;;;;;;;20.10;63.40;;;;;;5086643;28;19994;-76
2022/05/28 12:29:08;;;;;;;;;;;22.30;70.80;;;;;;5092316;28;19914;-77
2022/05/28 12:31:33;;;;;;;;;;;23.80;56.70;;;;;;5090299;28;19923;-76
2022/05/28 12:33:59;;;;;;;;;;;22.50;54.70;;;;;;5082834;28;20276;-75
2022/05/28 12:36:37;;;;;;;;;;;21.50;55.30;;;;;;5089664;28;19908;-75
2022/05/28 12:39:02;;;;;;;;;;;20.50;58.20;;;;;;5091620;28;19912;-76
2022/05/28 12:41:35;;;;;;;;;;;20.70;60.90;;;;;;5092450;28;19931;-75
2022/05/28 12:44:01;;;;;;;;;;;21.50;55.10;;;;;;5092097;28;20341;-76
2022/05/28 12:46:41;;;;;;;;;;;24.70;55.20;;;;;;5091461;28;19956;-75
2022/05/28 12:49:09;;;;;;;;;;;24.40;53.20;;;;;;5092447;28;19908;-76
2022/05/28 12:51:48;;;;;;;;;;;24.40;53.10;;;;;;5092359;28;20265;-77
2022/05/28 12:54:23;;;;;;;;;;;23.10;51.20;;;;;;5086788;28;19918;-76
2022/05/28 12:56:49;;;;;;;;;;;21.80;51.40;;;;;;5075082;28;19909;-77
2022/05/28 12:59:17;;;;;;;;;;;23.50;52.60;;;;;;5071565;28;19908;-76
2022/05/28 13:01:58;;;;;;;;;;;22.40;50.80;;;;;;5072320;28;19912;-76
2022/05/28 13:04:25;;;;;;;;;;;21.90;56.10;;;;;;5071792;28;19916;-76
2022/05/28 13:06:55;;;;;;;;;;;24.30;56.00;;;;;;5072989;28;19966;-76
2022/05/28 13:09:24;;;;;;;;;;;23.30;55.70;;;;;;5073357;28;19970;-76
2022/05/28 13:11:50;;;;;;;;;;;22.70;59.50;;;;;;5071566;28;20277;-76
2022/05/28 13:14:29;;;;;;;;;;;20.40;60.10;;;;;;5072382;28;19915;-75
2022/05/28 13:16:55;;;;;;;;;;;19.20;61.90;;;;;;5072621;28;19908;-76
2022/05/28 13:19:34;;;;;;;;;;;17.80;62.50;;;;;;5071312;28;20263;-76
2022/05/28 13:22:23;;;;;;;;;;;21.40;60.10;;;;;;5084972;28;19916;-76
2022/05/28 13:25:01;;;;;;;;;;;23.60;54.80;;;;;;5079279;28;19912;-77
2022/05/28 13:27:32;;;;;;;;;;;24.00;53.60;;;;;;5075478;28;19909;-76
2022/05/28 13:30:13;;;;;;;;;;;22.40;56.80;;;;;;5072837;28;19909;-76
2022/05/28 13:32:52;;;;;;;;;;;21.20;58.00;;;;;;5086119;28;20282;-76
2022/05/28 13:35:18;;;;;;;;;;;24.10;50.80;;;;;;5091281;28;20000;-75
2022/05/28 13:37:45;;;;;;;;;;;19.80;58.40;;;;;;5092596;28;19912;-76
2022/05/28 13:40:21;;;;;;;;;;;21.10;54.40;;;;;;5092404;28;19908;-77
2022/05/28 13:42:47;;;;;;;;;;;24.20;51.40;;;;;;5091556;28;19919;-76
2022/05/28 13:45:20;;;;;;;;;;;21.50;58.90;;;;;;5090940;28;20396;-76
2022/05/28 13:47:46;;;;;;;;;;;18.80;56.70;;;;;;5089991;28;20182;-76
2022/05/28 13:50:12;;;;;;;;;;;21.10;55.30;;;;;;5091401;28;19954;-77
2022/05/28 13:52:41;;;;;;;;;;;24.10;55.50;;;;;;5086744;28;19908;-77
2022/05/28 13:55:08;;;;;;;;;;;23.90;54.10;;;;;;5080380;28;19962;-76
2022/05/28 13:57:41;;;;;;;;;;;21.80;57.00;;;;;;5072482;28;20408;-76
2022/05/28 14:00:08;;;;;;;;;;;20.00;59.40;;;;;;5071942;28;19908;-75
2022/05/28 14:02:34;;;;;;;;;;;19.90;60.90;;;;;;5070244;28;20276;-75
2022/05/28 14:05:00;;;;;;;;;;;18.80;58.10;;;;;;5071088;28;19995;-76
2022/05/28 14:07:30;;;;;;;;;;;21.60;54.40;;;;;;5072161;28;20282;-76
2022/05/28 14:09:56;;;;;;;;;;;21.00;53.50;;;;;;5070560;28;20293;-76
2022/05/28 14:12:26;;;;;;;;;;;20.60;54.60;;;;;;5072527;28;19954;-77
2022/05/28 14:14:52;;;;;;;;;;;23.10;52.50;;;;;;5071824;28;19908;-76
2022/05/28 14:17:21;;;;;;;;;;;20.30;51.50;;;;;;5072281;28;20281;-76
2022/05/28 14:19:49;;;;;;;;;;;17.90;60.20;;;;;;5071122;28;19912;-75
2022/05/28 14:22:35;;;;;;;;;;;17.20;60.60;;;;;;5070053;28;19922;-76
2022/05/28 14:25:02;;;;;;;;;;;20.70;59.70;;;;;;5082796;28;19908;-76
2022/05/28 14:27:29;;;;;;;;;;;25.00;55.80;;;;;;5071654;28;19908;-76
2022/05/28 14:29:55;;;;;;;;;;;24.10;49.60;;;;;;5070944;28;19991;-76
2022/05/28 14:32:32;;;;;;;;;;;22.80;49.20;;;;;;5070825;28;19947;-76
2022/05/28 14:34:57;;;;;;;;;;;22.20;56.40;;;;;;5070733;28;19917;-75
2022/05/28 14:37:26;;;;;;;;;;;20.70;55.40;;;;;;5071240;28;20254;-76
2022/05/28 14:39:52;;;;;;;;;;;22.80;50.20;;;;;;5072160;28;19913;-75